Time;durP1;ratioP1;P1;durP2;ratioP2;P2;SDS_P1;SDS_P2;PMS_P1;PMS_P2;Temp;Humidity;BMP_temperature;BMP_pressure;BME280_temperature;BME280_humidity;BME280_pressure;Samples;Min_cycle;Max_cycle;Signal;HPM_P1;HPM_P2
2021/06/23 00:01:09;;;;;;;6.05;2.67;;;;;;;22.60;59.93;100268.50;1721220;82;21072;-87
2021/06/23 00:03:37;;;;;;;8.85;2.33;;;;;;;22.67;59.66;100268.50;1695554;83;21006;-89
2021/06/23 00:06:05;;;;;;;7.72;2.40;;;;;;;22.72;59.41;100270.42;1698015;83;21609;-88
2021/06/23 00:08:31;;;;;;;6.87;3.30;;;;;;;22.79;59.25;100265.52;1701869;83;21303;-86
2021/06/23 00:10:59;;;;;;;4.75;3.08;;;;;;;22.89;58.71;100266.08;1700662;83;21041;-86
2021/06/23 00:13:31;;;;;;;12.98;7.75;;;;;;;22.90;58.58;100265.78;1692961;83;21191;-86
2021/06/23 00:15:56;;;;;;;8.40;3.37;;;;;;;22.89;58.38;100272.88;1700425;83;21522;-87
2021/06/23 00:18:22;;;;;;;9.03;4.30;;;;;;;22.81;58.73;100274.23;1695783;84;21050;-88
2021/06/23 00:20:49;;;;;;;8.33;2.92;;;;;;;22.80;59.24;100274.50;1694536;84;21053;-88
2021/06/23 00:23:15;;;;;;;8.38;3.80;;;;;;;22.80;59.24;100274.50;1687838;84;21050;-88
2021/06/23 00:25:42;;;;;;;6.80;2.80;;;;;;;22.73;59.08;100273.40;1682123;82;21042;-87
2021/06/23 00:28:09;;;;;;;6.62;2.58;;;;;;;22.60;59.22;100276.09;1683271;83;21113;-85
2021/06/23 00:30:35;;;;;;;5.83;2.52;;;;;;;22.50;59.92;100275.55;1680396;83;21005;-88
2021/06/23 00:33:06;;;;;;;9.13;2.85;;;;;;;22.52;60.56;100270.66;1683237;82;21005;-88
2021/06/23 00:35:34;;;;;;;6.00;2.85;;;;;;;22.54;60.19;100271.75;1672985;83;21094;-88
2021/06/23 00:38:02;;;;;;;9.95;2.90;;;;;;;22.48;60.53;100271.48;1687076;82;21109;-86
2021/06/23 00:40:28;;;;;;;7.50;3.15;;;;;;;22.48;60.75;100263.33;1680027;84;21011;-91
2021/06/23 00:42:55;;;;;;;9.40;2.85;;;;;;;22.50;60.91;100272.83;1679680;84;21025;-90
2021/06/23 00:45:23;;;;;;;7.37;3.27;;;;;;;22.50;60.88;100266.05;1678466;84;21140;-89
2021/06/23 00:47:53;;;;;;;8.63;3.60;;;;;;;22.50;61.23;100263.87;1677733;84;21067;-89
2021/06/23 00:50:19;;;;;;;7.78;2.55;;;;;;;22.55;60.92;100263.89;1680732;81;21028;-79
2021/06/23 00:53:06;;;;;;;9.28;3.02;;;;;;;22.52;60.80;100260.34;1603266;85;21126;-82
2021/06/23 00:55:34;;;;;;;10.58;3.80;;;;;;;22.43;61.34;100263.31;1588333;87;21032;-85
2021/06/23 00:58:02;;;;;;;10.75;3.80;;;;;;;22.38;61.60;100266.02;1575367;87;21090;-83
2021/06/23 01:00:32;;;;;;;12.07;4.15;;;;;;;22.34;61.53;100263.86;1613435;83;21019;-86
2021/06/23 01:03:03;;;;;;;5.25;3.15;;;;;;;22.33;61.75;100271.72;1697881;83;20986;-86
2021/06/23 01:05:33;;;;;;;13.58;3.27;;;;;;;22.37;61.77;100271.19;1688552;81;21724;-84
2021/06/23 01:08:00;;;;;;;9.85;2.90;;;;;;;22.49;61.47;100269.02;1678495;83;21085;-87
2021/06/23 01:10:34;;;;;;;10.30;3.25;;;;;;;22.58;61.34;100272.03;1684920;83;21533;-86
2021/06/23 01:13:13;;;;;;;11.57;4.62;;;;;;;22.57;61.42;100271.23;1667095;85;21098;-89
2021/06/23 01:15:47;;;;;;;10.28;4.17;;;;;;;22.56;61.46;100265.50;1666996;85;21077;-89
2021/06/23 01:18:13;;;;;;;15.20;4.67;;;;;;;22.47;61.83;100270.67;1666444;85;21565;-89
2021/06/23 01:20:42;;;;;;;8.65;3.40;;;;;;;22.39;62.07;100264.95;1673624;84;21625;-86
2021/06/23 01:23:11;;;;;;;8.95;3.98;;;;;;;22.27;62.75;100267.36;1681365;85;20981;-88
2021/06/23 01:25:38;;;;;;;8.25;3.92;;;;;;;22.20;63.25;100268.13;1665380;84;21097;-88
2021/06/23 01:28:05;;;;;;;14.90;3.75;;;;;;;22.16;63.73;100277.89;1660976;85;21115;-90
2021/06/23 01:30:36;;;;;;;9.50;3.65;;;;;;;22.04;64.06;100279.48;1666435;84;21281;-88
2021/06/23 01:33:06;;;;;;;11.80;4.15;;;;;;;21.94;64.48;100277.55;1661516;84;21136;-88
2021/06/23 01:35:33;;;;;;;7.20;2.75;;;;;;;21.96;64.78;100277.27;1663106;85;20989;-90
2021/06/23 01:38:04;;;;;;;6.00;3.83;;;;;;;22.05;64.65;100270.80;1670681;83;21007;-88
2021/06/23 01:40:32;;;;;;;7.10;3.00;;;;;;;22.20;64.19;100274.91;1668904;85;21046;-85
2021/06/23 01:42:59;;;;;;;8.35;3.52;;;;;;;22.29;63.70;100277.41;1643462;85;21033;-87
2021/06/23 01:45:26;;;;;;;6.55;3.75;;;;;;;22.22;63.52;100272.74;1653705;86;21560;-86
2021/06/23 01:47:54;;;;;;;10.05;3.20;;;;;;;22.05;63.66;100280.30;1646837;87;21144;-86
2021/06/23 01:50:22;;;;;;;8.25;4.03;;;;;;;21.84;64.87;100276.14;1639583;86;21058;-89
2021/06/23 01:52:50;;;;;;;5.97;3.58;;;;;;;21.74;65.16;100273.39;1647618;86;20990;-83
2021/06/23 01:55:29;;;;;;;4.87;2.98;;;;;;;21.79;65.22;100270.69;1606661;85;21012;-81
2021/06/23 01:58:05;;;;;;;6.78;2.80;;;;;;;21.87;64.50;100268.84;1625114;83;21042;-85
2021/06/23 02:00:48;;;;;;;6.58;3.00;;;;;;;21.83;64.67;100271.81;1627493;82;21041;-83
2021/06/23 02:03:25;;;;;;;7.08;3.05;;;;;;;21.78;64.81;100273.95;1647291;84;21003;-88
2021/06/23 02:06:05;;;;;;;9.70;3.33;;;;;;;21.81;65.30;100276.66;1617864;87;21006;-90
2021/06/23 02:08:50;;;;;;;6.78;3.33;;;;;;;21.91;65.00;100269.94;1619431;86;21026;-87
2021/06/23 02:11:47;;;;;;;6.83;3.37;;;;;;;21.82;64.34;100228.66;1630321;86;21122;-85
2021/06/23 02:14:39;;;;;;;4.97;3.35;;;;;;;22.22;63.50;100266.50;1619149;87;21067;-87
2021/06/23 02:17:14;;;;;;;9.80;3.30;;;;;;;22.26;63.35;100263.00;1598816;87;21110;-85
2021/06/23 02:19:47;;;;;;;6.83;2.95;;;;;;;22.22;63.17;100259.72;1620358;87;21126;-90
2021/06/23 02:22:26;;;;;;;13.30;3.87;;;;;;;22.19;62.93;100261.59;1623207;85;21039;-91
2021/06/23 02:25:08;;;;;;;8.90;3.27;;;;;;;22.09;63.06;100263.75;1625063;87;21022;-87
2021/06/23 02:27:40;;;;;;;8.60;3.30;;;;;;;22.08;63.22;100266.20;1630044;87;21045;-87
2021/06/23 02:30:12;;;;;;;8.40;3.25;;;;;;;22.26;63.05;100257.57;1591907;87;21093;-86
2021/06/23 02:32:41;;;;;;;10.08;3.40;;;;;;;22.58;62.03;100261.97;1606474;88;21656;-91
2021/06/23 02:35:10;;;;;;;6.22;2.40;;;;;;;22.83;60.97;100270.70;1651664;85;21039;-84
2021/06/23 02:37:41;;;;;;;6.50;2.58;;;;;;;23.00;59.87;100270.42;1661172;85;21501;-86
2021/06/23 02:40:10;;;;;;;6.30;2.40;;;;;;;23.17;57.83;100278.84;1666626;85;21190;-83
2021/06/23 02:42:42;;;;;;;5.03;2.55;;;;;;;23.20;57.27;100276.95;1663848;85;21227;-89
2021/06/23 02:45:12;;;;;;;7.62;2.77;;;;;;;23.16;57.56;100273.16;1666530;84;21241;-91
2021/06/23 02:47:40;;;;;;;5.12;2.58;;;;;;;23.18;57.23;100280.49;1617194;87;21554;-85
2021/06/23 02:50:10;;;;;;;5.62;2.62;;;;;;;23.24;57.33;100277.48;1659899;85;21078;-88
2021/06/23 02:52:40;;;;;;;9.08;2.58;;;;;;;23.34;56.94;100283.47;1649093;85;21049;-84
2021/06/23 02:55:08;;;;;;;5.42;2.52;;;;;;;23.44;56.50;100286.70;1656921;85;21086;-86
2021/06/23 02:57:37;;;;;;;6.30;2.72;;;;;;;23.58;56.28;100282.86;1672264;85;21126;-84
2021/06/23 03:00:06;;;;;;;9.40;2.67;;;;;;;23.76;55.80;100286.34;1666412;85;21006;-84
2021/06/23 03:02:34;;;;;;;7.55;3.08;;;;;;;23.92;55.08;100282.23;1657509;84;21035;-84
2021/06/23 03:05:01;;;;;;;8.63;2.20;;;;;;;23.99;54.30;100283.55;1616222;84;21004;-88
2021/06/23 03:07:27;;;;;;;6.25;2.85;;;;;;;24.00;54.20;100278.39;1602622;86;21047;-80
2021/06/23 03:10:06;;;;;;;7.10;2.45;;;;;;;23.97;53.81;100284.94;1659647;83;20991;-85
2021/06/23 03:12:38;;;;;;;5.55;2.05;;;;;;;23.93;54.08;100274.34;1641478;84;21068;-84
2021/06/23 03:15:22;;;;;;;14.18;3.35;;;;;;;24.00;54.55;100276.22;1636705;86;21056;-89
2021/06/23 03:17:50;;;;;;;10.80;3.00;;;;;;;24.25;54.52;100273.34;1643958;86;21089;-85
2021/06/23 03:20:17;;;;;;;7.80;2.60;;;;;;;24.57;53.07;100274.81;1644103;86;20973;-86
2021/06/23 03:22:44;;;;;;;6.62;2.85;;;;;;;24.87;51.99;100275.68;1643501;85;21048;-86
2021/06/23 03:25:12;;;;;;;7.25;3.47;;;;;;;25.12;51.44;100269.73;1643127;86;21099;-88
2021/06/23 03:27:39;;;;;;;4.50;2.85;;;;;;;25.39;50.76;100282.85;1643787;86;21048;-90
2021/06/23 03:30:08;;;;;;;8.40;2.20;;;;;;;25.59;50.43;100283.20;1641378;86;21060;-85
2021/06/23 03:32:34;;;;;;;7.72;2.10;;;;;;;25.70;49.44;100283.91;1641394;86;21582;-86
2021/06/23 03:35:02;;;;;;;6.15;1.45;;;;;;;25.64;49.15;100287.23;1645529;85;21065;-84
2021/06/23 03:37:28;;;;;;;5.30;1.80;;;;;;;25.51;49.51;100280.55;1660240;85;21148;-83
2021/06/23 03:39:54;;;;;;;5.72;2.20;;;;;;;25.51;49.50;100278.39;1660157;85;21021;-83
2021/06/23 03:42:21;;;;;;;6.37;2.08;;;;;;;25.76;49.84;100278.08;1660780;85;20971;-85
2021/06/23 03:44:49;;;;;;;4.50;1.67;;;;;;;26.13;48.85;100275.75;1659738;85;21009;-87
2021/06/23 03:47:18;;;;;;;5.80;2.45;;;;;;;26.41;47.90;100275.36;1661895;85;21164;-84
2021/06/23 03:49:45;;;;;;;3.92;1.70;;;;;;;26.51;47.61;100280.66;1667906;82;21102;-83
2021/06/23 03:52:11;;;;;;;5.53;1.60;;;;;;;26.67;47.44;100274.41;1660131;85;21017;-84
2021/06/23 03:54:37;;;;;;;6.78;1.98;;;;;;;26.84;46.55;100286.17;1660248;85;21100;-87
2021/06/23 03:57:07;;;;;;;6.55;1.95;;;;;;;27.03;46.23;100274.37;1663454;85;21141;-82
2021/06/23 03:59:34;;;;;;;5.03;1.55;;;;;;;27.20;45.92;100274.64;1630223;86;21548;-82
2021/06/23 04:02:05;;;;;;;4.67;2.22;;;;;;;27.43;45.13;100275.61;1664686;84;21502;-84
2021/06/23 04:04:31;;;;;;;9.05;2.02;;;;;;;27.66;44.52;100272.41;1662529;81;20986;-84
2021/06/23 04:07:16;;;;;;;9.43;2.42;;;;;;;27.84;44.17;100275.34;1662011;85;21054;-84
2021/06/23 04:09:47;;;;;;;5.72;1.95;;;;;;;28.06;43.49;100269.96;1663123;85;21053;-84
2021/06/23 04:12:17;;;;;;;6.40;1.55;;;;;;;28.22;43.01;100266.88;1662794;82;21083;-84
2021/06/23 04:14:45;;;;;;;6.92;2.25;;;;;;;28.26;43.10;100272.02;1660310;85;21029;-84
2021/06/23 04:17:11;;;;;;;6.20;1.85;;;;;;;28.25;43.87;100265.70;1660034;85;21075;-82
2021/06/23 04:19:40;;;;;;;13.93;2.83;;;;;;;28.35;43.95;100266.05;1622440;85;21049;-83
2021/06/23 04:22:08;;;;;;;6.33;2.90;;;;;;;28.44;43.97;100265.53;1658347;84;21020;-86
2021/06/23 04:24:36;;;;;;;10.85;2.37;;;;;;;28.50;44.16;100267.06;1619827;86;21651;-88
2021/06/23 04:27:04;;;;;;;7.83;1.90;;;;;;;28.75;43.09;100268.16;1638154;86;21052;-83
2021/06/23 04:29:33;;;;;;;5.08;1.60;;;;;;;28.89;41.98;100257.91;1637741;86;21158;-87
2021/06/23 04:32:00;;;;;;;6.03;2.00;;;;;;;28.93;42.02;100262.47;1639088;86;21035;-84
2021/06/23 04:34:28;;;;;;;6.80;1.55;;;;;;;28.92;40.81;100258.09;1652636;84;21092;-87
2021/06/23 04:36:57;;;;;;;6.33;1.02;;;;;;;28.68;40.91;100252.12;1670959;84;21105;-85
2021/06/23 04:39:23;;;;;;;9.93;1.52;;;;;;;28.25;41.38;100255.30;1662514;84;21640;-85
2021/06/23 04:41:55;;;;;;;3.35;0.80;;;;;;;27.85;42.16;100247.65;1673707;84;21569;-87
2021/06/23 04:44:22;;;;;;;6.45;1.35;;;;;;;27.74;42.54;100247.05;1670955;83;20965;-85
2021/06/23 04:46:50;;;;;;;5.72;1.27;;;;;;;27.82;42.69;100236.49;1696864;83;21086;-80
2021/06/23 04:49:16;;;;;;;8.23;1.22;;;;;;;27.91;42.45;100236.86;1683518;83;21091;-77
2021/06/23 04:51:44;;;;;;;4.00;1.02;;;;;;;28.07;42.00;100238.72;1687976;83;21736;-78
2021/06/23 04:54:11;;;;;;;2.45;1.02;;;;;;;28.14;41.84;100239.65;1665993;83;21109;-79
2021/06/23 04:56:39;;;;;;;2.40;0.72;;;;;;;28.17;42.14;100240.98;1687500;83;21158;-79
2021/06/23 04:59:05;;;;;;;4.42;1.82;;;;;;;28.30;42.03;100244.23;1690106;83;20993;-81
2021/06/23 05:01:32;;;;;;;3.35;1.30;;;;;;;28.45;41.66;100243.07;1692004;83;21120;-81
2021/06/23 05:04:02;;;;;;;3.05;1.47;;;;;;;28.55;41.51;100242.84;1690690;83;21081;-80
2021/06/23 05:06:28;;;;;;;6.12;0.90;;;;;;;28.56;41.36;100248.59;1694539;83;21072;-79
2021/06/23 05:08:54;;;;;;;7.53;1.20;;;;;;;28.54;41.77;100242.04;1690712;83;21053;-80
2021/06/23 05:11:21;;;;;;;6.25;1.22;;;;;;;28.45;41.88;100249.35;1695908;83;21053;-80
2021/06/23 05:13:47;;;;;;;14.23;1.90;;;;;;;28.30;42.22;100250.52;1684485;84;21090;-78
2021/06/23 05:16:16;;;;;;;3.47;0.98;;;;;;;28.33;42.18;100249.08;1683846;84;21069;-80
2021/06/23 05:18:42;;;;;;;4.65;1.50;;;;;;;28.38;42.18;100259.93;1681424;84;21033;-78
2021/06/23 05:21:08;;;;;;;11.25;1.55;;;;;;;28.40;42.54;100268.66;1682527;84;21581;-78
2021/06/23 05:23:34;;;;;;;5.17;1.37;;;;;;;28.49;42.50;100276.95;1656575;85;21049;-77
2021/06/23 05:26:00;;;;;;;6.78;1.00;;;;;;;28.65;42.45;100278.80;1614856;87;21513;-78
2021/06/23 05:28:26;;;;;;;5.75;1.40;;;;;;;28.81;42.34;100280.05;1641999;86;21064;-79
2021/06/23 05:30:53;;;;;;;6.40;1.75;;;;;;;28.90;42.58;100264.45;1643641;86;21138;-80
2021/06/23 05:33:19;;;;;;;4.33;1.10;;;;;;;29.11;42.11;100260.62;1649538;85;21079;-86
2021/06/23 05:35:45;;;;;;;2.30;1.02;;;;;;;29.14;42.11;100261.97;1644178;86;21037;-82
2021/06/23 05:38:11;;;;;;;4.30;2.27;;;;;;;29.02;42.15;100269.93;1644151;86;21021;-90
2021/06/23 05:40:39;;;;;;;3.15;1.72;;;;;;;28.79;42.66;100265.84;1648483;86;21048;-85
2021/06/23 05:43:06;;;;;;;5.47;1.70;;;;;;;28.72;42.99;100254.49;1643865;86;21069;-85
2021/06/23 05:45:33;;;;;;;7.20;1.60;;;;;;;28.56;43.40;100249.12;1642506;86;21012;-89
2021/06/23 05:47:59;;;;;;;10.05;2.17;;;;;;;28.32;44.23;100246.91;1643520;86;21074;-86
2021/06/23 05:50:27;;;;;;;2.77;1.07;;;;;;;28.21;44.54;100243.34;1642398;86;20978;-85
2021/06/23 05:52:54;;;;;;;7.62;1.92;;;;;;;28.15;44.86;100236.61;1644125;86;21135;-86
2021/06/23 05:55:23;;;;;;;7.15;1.77;;;;;;;28.24;45.11;100234.52;1644277;86;21033;-88
2021/06/23 05:57:54;;;;;;;11.28;1.42;;;;;;;28.33;44.41;100231.27;1645099;86;21019;-85
2021/06/23 06:00:24;;;;;;;7.15;1.67;;;;;;;28.36;44.60;100232.02;1611910;87;21045;-83
2021/06/23 06:02:51;;;;;;;5.47;1.20;;;;;;;28.42;44.77;100235.45;1588059;87;21068;-82
2021/06/23 06:05:17;;;;;;;2.92;1.50;;;;;;;28.56;44.38;100235.42;1593854;87;21103;-81
2021/06/23 06:07:44;;;;;;;4.25;1.30;;;;;;;28.69;43.63;100220.86;1582907;89;21065;-82
2021/06/23 06:10:11;;;;;;;3.33;1.17;;;;;;;28.78;44.01;100218.95;1574118;89;21097;-83
2021/06/23 06:12:37;;;;;;;5.85;1.02;;;;;;;28.83;43.38;100217.45;1628659;86;21127;-81
2021/06/23 06:15:05;;;;;;;6.72;1.40;;;;;;;28.79;42.76;100212.92;1642596;86;21075;-79
2021/06/23 06:17:32;;;;;;;7.83;1.35;;;;;;;28.80;42.90;100216.73;1638437;86;21067;-77
2021/06/23 06:19:58;;;;;;;1.47;1.37;;;;;;;28.96;42.91;100220.44;1644329;86;21095;-84
2021/06/23 06:22:27;;;;;;;7.08;2.05;;;;;;;29.12;42.68;100214.23;1631545;86;21613;-78
2021/06/23 06:24:54;;;;;;;8.58;2.10;;;;;;;29.25;42.72;100215.83;1617419;87;21058;-78
2021/06/23 06:27:20;;;;;;;6.03;1.82;;;;;;;29.38;42.38;100211.36;1623483;87;21092;-77
2021/06/23 06:29:48;;;;;;;7.22;2.08;;;;;;;29.44;42.13;100206.80;1617145;87;21145;-77
2021/06/23 06:32:14;;;;;;;6.20;1.57;;;;;;;29.53;42.01;100206.80;1617993;87;21097;-80
2021/06/23 06:34:41;;;;;;;9.70;1.92;;;;;;;29.57;42.07;100207.77;1608141;87;21549;-79
2021/06/23 06:37:07;;;;;;;5.15;1.95;;;;;;;29.68;42.17;100204.97;1612433;87;21665;-78
2021/06/23 06:39:37;;;;;;;4.65;1.30;;;;;;;29.76;42.20;100202.59;1615992;87;21036;-79
2021/06/23 06:42:05;;;;;;;7.35;1.87;;;;;;;29.84;42.55;100203.99;1615350;87;21108;-79
2021/06/23 06:44:34;;;;;;;14.25;1.98;;;;;;;29.97;41.94;100206.36;1604773;87;21006;-79
2021/06/23 06:47:02;;;;;;;7.03;1.37;;;;;;;30.08;42.03;100206.28;1618148;87;21034;-78
2021/06/23 06:49:29;;;;;;;7.33;1.37;;;;;;;30.19;42.03;100205.95;1612842;87;21094;-79
2021/06/23 06:51:58;;;;;;;2.87;1.20;;;;;;;30.20;41.91;100208.38;1640209;87;21062;-78
2021/06/23 06:54:26;;;;;;;4.87;1.52;;;;;;;30.14;41.97;100203.35;1626675;87;21038;-78
2021/06/23 06:56:52;;;;;;;4.20;1.75;;;;;;;30.17;41.94;100198.02;1602785;86;21118;-78
2021/06/23 06:59:18;;;;;;;6.30;1.57;;;;;;;30.23;42.10;100198.66;1638010;86;21100;-79
2021/06/23 07:01:45;;;;;;;3.70;1.10;;;;;;;30.36;41.84;100201.84;1643066;85;20983;-79
2021/06/23 07:04:14;;;;;;;3.12;1.05;;;;;;;30.53;41.29;100209.83;1637884;86;21549;-77
2021/06/23 07:06:46;;;;;;;2.95;1.22;;;;;;;30.60;41.46;100207.40;1630533;86;22228;-78
2021/06/23 07:09:14;;;;;;;10.65;1.25;;;;;;;30.72;40.70;100199.27;1627375;86;21670;-80
2021/06/23 07:11:43;;;;;;;6.25;0.90;;;;;;;30.79;40.14;100207.83;1634340;85;21152;-78
2021/06/23 07:14:10;;;;;;;5.67;1.30;;;;;;;30.88;40.53;100209.19;1656601;85;21017;-78
2021/06/23 07:16:37;;;;;;;3.70;1.05;;;;;;;30.99;40.31;100209.68;1646425;86;21670;-80
2021/06/23 07:19:05;;;;;;;11.48;1.45;;;;;;;31.11;40.23;100208.41;1656520;85;21240;-78
2021/06/23 07:21:31;;;;;;;10.65;1.42;;;;;;;31.23;40.26;100217.34;1662270;85;21046;-81
2021/06/23 07:23:58;;;;;;;3.10;0.82;;;;;;;31.38;39.78;100220.94;1611564;88;21054;-79
2021/06/23 07:26:26;;;;;;;5.45;1.27;;;;;;;31.56;39.47;100223.63;1616129;87;21185;-79
2021/06/23 07:28:54;;;;;;;4.03;1.00;;;;;;;31.72;39.16;100215.02;1615741;88;21106;-81
2021/06/23 07:31:36;;;;;;;3.08;0.95;;;;;;;31.89;39.17;100215.47;1610605;88;21101;-80
2021/06/23 07:34:13;;;;;;;3.62;0.95;;;;;;;32.19;38.37;100217.63;1611802;87;21059;-80
2021/06/23 07:38:59;;;;;;;3.80;0.90;;;;;;;32.63;37.03;100204.83;1613566;87;21100;-81
2021/06/23 07:41:25;;;;;;;3.22;0.90;;;;;;;32.52;36.53;100196.72;1598548;87;21081;-80
2021/06/23 07:43:53;;;;;;;8.60;1.05;;;;;;;32.37;37.19;100192.64;1629162;86;21152;-80
2021/06/23 07:46:19;;;;;;;1.52;0.60;;;;;;;32.30;36.34;100189.62;1626913;86;21061;-83
2021/06/23 07:48:50;;;;;;;5.03;1.25;;;;;;;32.17;36.18;100190.13;1629555;88;21133;-79
2021/06/23 07:51:18;;;;;;;4.72;0.95;;;;;;;31.95;36.75;100192.08;1632455;88;21110;-81
2021/06/23 07:56:12;;;;;;;4.37;0.80;;;;;;;31.64;37.76;100195.20;1632649;86;21607;-79
2021/06/23 08:09:42;;;;;;;6.70;0.95;;;;;;;31.40;38.00;100201.30;1629517;86;21592;-82
2021/06/23 08:12:17;;;;;;;5.55;1.35;;;;;;;31.36;38.12;100203.94;1628237;86;21076;-86
2021/06/23 08:14:36;;;;;;;3.15;0.90;;;;;;;31.36;38.04;100205.86;1628098;86;21596;-85
2021/06/23 08:17:05;;;;;;;4.15;0.98;;;;;;;31.36;37.68;100204.48;1631039;86;21144;-83
2021/06/23 08:19:31;;;;;;;5.47;0.93;;;;;;;31.35;38.15;100205.64;1631519;86;21108;-85
2021/06/23 08:21:57;;;;;;;4.20;1.30;;;;;;;31.34;37.90;100201.26;1631238;86;21037;-83
2021/06/23 08:24:23;;;;;;;0.80;0.75;;;;;;;31.34;37.60;100204.02;1629656;84;21152;-84
2021/06/23 08:26:49;;;;;;;5.03;1.17;;;;;;;31.35;37.86;100202.89;1628651;86;21068;-83
2021/06/23 08:29:16;;;;;;;3.75;1.15;;;;;;;31.38;37.93;100206.34;1634603;86;21049;-84
2021/06/23 08:31:42;;;;;;;1.05;0.75;;;;;;;31.41;37.66;100204.30;1635363;85;21052;-83
2021/06/23 08:34:08;;;;;;;4.33;0.78;;;;;;;31.40;37.98;100206.27;1647465;82;21001;-83
2021/06/23 08:36:34;;;;;;;1.72;0.65;;;;;;;31.39;37.73;100208.77;1666637;85;21053;-83
2021/06/23 08:39:00;;;;;;;5.47;1.17;;;;;;;31.41;38.04;100207.86;1655946;85;21168;-82
2021/06/23 08:41:28;;;;;;;1.92;0.57;;;;;;;31.52;38.15;100204.19;1651008;86;21070;-84
2021/06/23 08:43:57;;;;;;;3.25;0.88;;;;;;;31.68;37.67;100212.67;1652457;86;21126;-83
2021/06/23 08:46:25;;;;;;;4.67;0.68;;;;;;;31.80;36.86;100213.34;1636856;85;21512;-83
2021/06/23 08:48:53;;;;;;;4.50;1.12;;;;;;;31.89;36.79;100216.85;1641374;87;21083;-83
2021/06/23 08:51:22;;;;;;;5.40;0.90;;;;;;;32.01;36.73;100216.91;1602272;88;21023;-84
2021/06/23 08:53:51;;;;;;;4.70;0.78;;;;;;;32.11;36.37;100209.41;1641271;87;21034;-85
2021/06/23 08:56:19;;;;;;;4.78;0.70;;;;;;;32.10;35.91;100210.54;1614138;87;21226;-83
2021/06/23 08:58:46;;;;;;;4.20;0.75;;;;;;;32.10;37.06;100202.27;1626519;86;21127;-84
2021/06/23 09:01:14;;;;;;;4.22;1.00;;;;;;;32.16;37.58;100198.98;1607026;88;21843;-84
2021/06/23 09:04:04;;;;;;;6.80;1.10;;;;;;;32.19;36.82;100204.38;1579898;91;21565;-86
2021/06/23 09:06:47;;;;;;;11.03;1.00;;;;;;;32.23;35.27;100192.94;1578870;89;21137;-87
2021/06/23 09:09:28;;;;;;;3.83;0.93;;;;;;;32.25;34.95;100197.54;1566418;91;21114;-85
2021/06/23 09:12:01;;;;;;;3.10;0.80;;;;;;;32.26;35.05;100188.69;1576645;89;21118;-84
2021/06/23 09:14:35;;;;;;;7.35;1.30;;;;;;;32.31;35.20;100180.22;1585428;89;21583;-82
2021/06/23 09:17:11;;;;;;;9.60;0.82;;;;;;;32.38;35.23;100181.82;1597455;88;21131;-81
2021/06/23 09:19:49;;;;;;;3.67;0.62;;;;;;;32.46;35.08;100198.08;1614731;88;21063;-85
2021/06/23 09:22:39;;;;;;;5.67;0.72;;;;;;;32.50;35.18;100193.49;1593808;88;21035;-85
2021/06/23 09:25:13;;;;;;;3.35;1.37;;;;;;;32.50;35.06;100201.19;1590026;89;21047;-83
2021/06/23 09:27:54;;;;;;;6.05;0.90;;;;;;;32.44;35.55;100207.24;1590612;90;21154;-85
2021/06/23 09:30:36;;;;;;;6.12;0.88;;;;;;;32.40;35.77;100203.80;1586668;89;21131;-87
2021/06/23 09:33:21;;;;;;;8.05;1.15;;;;;;;32.44;35.82;100210.00;1575452;89;21137;-83
2021/06/23 09:36:16;;;;;;;4.67;0.80;;;;;;;32.46;36.30;100194.74;1584699;89;21062;-83
2021/06/23 09:38:54;;;;;;;2.67;0.82;;;;;;;32.49;36.18;100200.94;1590847;88;21102;-85
2021/06/23 09:41:24;;;;;;;2.35;0.82;;;;;;;32.55;36.50;100216.16;1590329;87;21681;-84
2021/06/23 09:43:55;;;;;;;3.83;0.72;;;;;;;32.64;36.47;100207.80;1579698;89;21137;-86
2021/06/23 09:46:33;;;;;;;2.75;1.27;;;;;;;32.74;36.40;100216.24;1618163;88;21014;-86
2021/06/23 09:49:06;;;;;;;10.80;1.20;;;;;;;32.88;36.05;100216.72;1616297;88;21141;-86
2021/06/23 09:51:44;;;;;;;9.98;0.78;;;;;;;32.96;36.07;100233.77;1598777;88;21579;-83
2021/06/23 09:54:13;;;;;;;8.38;0.90;;;;;;;33.02;35.94;100235.73;1609052;88;21098;-85
2021/06/23 09:56:46;;;;;;;6.47;1.12;;;;;;;33.03;36.22;100226.29;1618029;87;21809;-85
2021/06/23 09:59:41;;;;;;;4.22;1.67;;;;;;;32.96;36.47;100221.91;1645171;84;21094;-86
2021/06/23 10:02:32;;;;;;;4.62;0.90;;;;;;;32.91;36.39;100235.95;1674875;84;21078;-84
2021/06/23 10:05:04;;;;;;;9.10;0.82;;;;;;;32.87;36.66;100226.16;1666336;86;21050;-85
2021/06/23 10:07:43;;;;;;;5.45;0.85;;;;;;;32.80;36.18;100228.67;1668397;86;21162;-86
2021/06/23 10:10:20;;;;;;;4.70;0.70;;;;;;;32.73;35.86;100242.22;1668347;84;21071;-86
2021/06/23 10:12:49;;;;;;;4.28;0.80;;;;;;;32.64;36.71;100224.36;1658169;85;21063;-87
2021/06/23 10:15:16;;;;;;;6.60;1.12;;;;;;;32.58;36.80;100237.56;1659790;84;21072;-85
2021/06/23 10:17:44;;;;;;;4.33;0.90;;;;;;;32.61;37.04;100216.78;1659688;84;21058;-85
2021/06/23 10:20:14;;;;;;;9.75;1.00;;;;;;;32.66;37.24;100209.64;1664084;84;21047;-83
2021/06/23 10:22:45;;;;;;;3.65;0.90;;;;;;;32.77;36.39;100232.09;1660509;86;21552;-85
2021/06/23 10:25:16;;;;;;;6.25;0.50;;;;;;;32.82;36.29;100226.38;1668213;84;21062;-86
2021/06/23 10:27:49;;;;;;;4.15;0.95;;;;;;;32.84;35.30;100237.08;1664619;84;21692;-85
2021/06/23 10:30:17;;;;;;;5.33;0.90;;;;;;;32.81;35.85;100250.97;1670427;84;21083;-85
2021/06/23 10:33:12;;;;;;;2.60;0.57;;;;;;;32.79;35.74;100229.80;1661329;86;21067;-93
2021/06/23 11:48:26;;;;;;;25.68;4.97;;;;;;;33.29;34.03;100242.58;1623659;83;21084;-86
2021/06/23 11:50:54;;;;;;;24.12;3.72;;;;;;;33.28;33.95;100220.82;1580832;84;21151;-85
2021/06/23 11:53:22;;;;;;;20.00;4.03;;;;;;;33.32;34.12;100246.59;1547740;86;21108;-84
2021/06/23 11:55:50;;;;;;;27.50;4.87;;;;;;;32.27;33.33;100066.19;1583599;87;21066;-84
2021/06/23 11:58:19;;;;;;;32.83;4.85;;;;;;;33.36;32.60;100247.52;1596097;86;21175;-87
2021/06/23 12:00:45;;;;;;;28.95;4.70;;;;;;;33.32;33.09;100244.66;1616656;86;21097;-85
2021/06/23 12:03:15;;;;;;;21.73;4.72;;;;;;;33.31;33.03;100222.32;1605478;88;21119;-83
2021/06/23 12:05:42;;;;;;;23.30;3.80;;;;;;;33.36;33.10;100228.17;1604336;86;21067;-86
2021/06/23 12:08:09;;;;;;;29.72;4.80;;;;;;;33.41;33.16;100216.91;1606490;88;21190;-85
2021/06/23 12:10:38;;;;;;;41.10;5.50;;;;;;;33.41;33.62;100217.48;1610388;88;21485;-85
2021/06/23 12:13:47;;;;;;;29.12;4.90;;;;;;;33.46;33.25;100207.02;1857179;76;23353;-83
2021/06/23 12:16:14;;;;;;;29.12;5.33;;;;;;;33.46;33.43;100224.17;1851985;77;21021;-85
2021/06/23 12:18:41;;;;;;;25.97;4.28;;;;;;;33.50;32.68;100225.88;1853782;77;21060;-86
2021/06/23 12:21:08;;;;;;;30.88;5.55;;;;;;;33.55;33.25;100228.42;1851977;77;21001;-87
2021/06/23 12:23:35;;;;;;;37.73;7.62;;;;;;;33.59;32.94;100214.72;1808408;77;21074;-86
2021/06/23 12:26:02;;;;;;;53.68;6.87;;;;;;;33.60;31.52;100233.47;1774426;79;21484;-86
2021/06/23 12:28:30;;;;;;;36.85;7.35;;;;;;;33.56;31.55;100223.11;1764430;79;21018;-85
2021/06/23 12:30:56;;;;;;;33.58;6.10;;;;;;;33.49;32.07;100220.70;1773566;79;21575;-85
2021/06/23 12:33:22;;;;;;;39.53;5.50;;;;;;;33.40;32.10;100214.48;1784646;79;21127;-89
2021/06/23 12:35:48;;;;;;;38.92;5.75;;;;;;;33.33;32.33;100222.78;1764653;79;21002;-86
2021/06/23 12:38:18;;;;;;;37.73;5.62;;;;;;;33.28;32.26;100219.44;1797288;79;20978;-84
2021/06/23 12:40:52;;;;;;;24.90;5.15;;;;;;;33.27;32.47;100217.84;1794743;79;21021;-90
2021/06/23 12:43:18;;;;;;;34.98;5.25;;;;;;;33.28;33.04;100219.44;1781284;79;21016;-84
2021/06/23 12:45:51;;;;;;;30.97;4.87;;;;;;;33.31;33.02;100218.76;1771373;80;21105;-86
2021/06/23 12:48:18;;;;;;;29.85;5.15;;;;;;;33.34;32.96;100235.45;1768660;80;20977;-89
2021/06/23 12:50:45;;;;;;;29.32;4.67;;;;;;;33.35;32.60;100222.44;1760046;80;20968;-87
2021/06/23 12:53:12;;;;;;;26.45;4.42;;;;;;;33.33;33.19;100220.02;1763938;80;20982;-84
2021/06/23 12:55:38;;;;;;;25.65;5.37;;;;;;;33.35;33.36;100216.33;1763112;80;21636;-87
2021/06/23 12:58:04;;;;;;;29.42;4.95;;;;;;;33.35;33.76;100227.37;1760296;80;21027;-85
2021/06/23 13:00:40;;;;;;;24.87;5.12;;;;;;;33.37;33.76;100225.66;1759455;79;20953;-86
2021/06/23 13:03:18;;;;;;;32.98;5.50;;;;;;;33.37;34.16;100220.13;1750398;79;21039;-85
2021/06/23 13:05:46;;;;;;;34.10;4.65;;;;;;;33.38;34.27;100240.27;1752049;80;21135;-87